Aviation Digital Data Service (ADDS)

Output produced by METARs form (0640 UTC 24 March 2019)
found at http://www.aviationweather.gov/metar/data/
 
KBML 240552Z AUTO VRB03KT 10SM CLR M03/M13 A2989 RMK AO2 SLP140 T10331128 11022 21050 53010 $
KCON 240551Z AUTO 29006KT 10SM CLR M02/M11 A2997 RMK AO2 SLP154 T10171111 10017 21017 51013
KCON 240520Z 2406/2506 30007KT P6SM SKC 
     FM241300 29012KT P6SM SKC 
     FM250100 VRB04KT P6SM BKN250
       
KAFN 240552Z AUTO 26008KT 210V310 10SM CLR M01/M12 A2997 RMK AO2 SLP164 T10111117 10017 21017 51011
KEEN 240556Z AUTO 00000KT 10SM CLR M04/M08 A3003 RMK AO2 SLP190 T10391083 10022 21044 51012 FZRANO $
KLCI 240556Z AUTO 25009G17KT 10SM CLR M01/M11 A2996 RMK AO2 SLP163 T10111106 10000 21011 53012 FZRANO $
KLEB 240553Z AUTO 17004KT 10SM CLR M04/M11 A2999 RMK AO2 SLP167 T10441111 10011 21050 53009
KLEB 240520Z 2406/2506 VRB04KT P6SM SKC 
     FM241300 26010KT P6SM SKC 
     FM250500 VRB03KT P6SM BKN080
       
KMHT 240553Z COR 28008KT 10SM FEW200 01/M13 A2997 RMK AO2 SLP166 T00061128 10033 20006 51012 $
KMHT 240520Z 2406/2506 29008KT P6SM SKC 
     FM241300 29012KT P6SM SKC 
     FM250500 VRB04KT P6SM SCT150
       
KASH 240556Z AUTO VRB05KT 10SM CLR 01/M12 A3000 RMK AO2 SLP171 T00061122 10033 20006 51014 FZRANO $
KPSM 240456Z 27016G20KT 10SM BKN250 01/M12 A2992 RMK AO2A SLP135 T00081116 400650007
KPSM 240520Z 2406/2506 28012KT P6SM SKC 
     FM242300 26006KT P6SM BKN250
       
KDAW 240551Z AUTO 28008KT 250V310 10SM CLR 00/M11 A2993 RMK AO2 SLP133 T00001111 10017 20000 51015
KHIE 240552Z AUTO 23003KT 10SM CLR M07/M12 A2995 RMK AO2 SLP160 T10671117 11033 21078 53010 $
KHIE 240520Z 2406/2506 VRB04KT P6SM SKC 
     FM241300 26006KT P6SM FEW250 
     FM242100 27005KT P6SM BKN035